createdAt,value
2023-05-12T00:02:27.187Z,6.80
2023-05-12T00:04:55.123Z,6.67
2023-05-12T00:07:26.158Z,7.13
2023-05-12T00:09:53.849Z,7.90
2023-05-12T00:12:21.879Z,7.23
2023-05-12T00:14:49.609Z,8.30
2023-05-12T00:17:17.486Z,6.90
2023-05-12T00:19:45.118Z,7.83
2023-05-12T00:22:14.447Z,7.90
2023-05-12T00:24:41.635Z,6.63
2023-05-12T00:27:08.767Z,7.40
2023-05-12T00:29:37.151Z,7.93
2023-05-12T00:32:05.146Z,8.17
2023-05-12T00:34:32.836Z,8.67
2023-05-12T00:37:00.868Z,8.47
2023-05-12T00:39:28.237Z,7.30
2023-05-12T00:41:59.652Z,6.20
2023-05-12T00:44:28.141Z,4.60
2023-05-12T00:46:56.875Z,4.93
2023-05-12T00:49:26.352Z,4.30
2023-05-12T00:51:55.793Z,5.13
2023-05-12T00:54:23.692Z,4.77
2023-05-12T00:56:51.360Z,4.70
2023-05-12T00:59:20.736Z,4.93
2023-05-12T01:01:50.042Z,4.17
2023-05-12T01:04:17.881Z,3.87
2023-05-12T01:06:49.128Z,4.77
2023-05-12T01:09:17.410Z,5.30
2023-05-12T01:11:45.582Z,7.30
2023-05-12T01:14:13.353Z,6.73
2023-05-12T01:16:44.226Z,7.70
2023-05-12T01:19:26.810Z,7.33
2023-05-12T01:21:54.825Z,8.23
2023-05-12T01:24:25.121Z,7.50
2023-05-12T01:26:52.443Z,7.90
2023-05-12T01:29:20.954Z,7.83
2023-05-12T01:31:49.710Z,7.03
2023-05-12T01:34:18.845Z,6.80
2023-05-12T01:36:50.021Z,6.77
2023-05-12T01:39:17.630Z,6.70
2023-05-12T01:41:45.821Z,6.57
2023-05-12T01:44:13.776Z,6.10
2023-05-12T01:46:41.123Z,7.07
2023-05-12T01:49:09.989Z,6.73
2023-05-12T01:51:37.833Z,6.80
2023-05-12T01:54:05.853Z,7.13
2023-05-12T01:56:36.767Z,7.20
2023-05-12T01:59:04.989Z,8.90
2023-05-12T02:01:32.683Z,10.97
2023-05-12T02:04:00.882Z,9.77
2023-05-12T02:06:30.153Z,9.30
2023-05-12T02:08:58.115Z,10.90
2023-05-12T02:11:26.587Z,11.00
2023-05-12T02:13:54.059Z,12.30
2023-05-12T02:16:21.659Z,10.50
2023-05-12T02:18:48.948Z,10.60
2023-05-12T02:21:16.525Z,10.00
2023-05-12T02:23:43.915Z,9.33
2023-05-12T02:26:11.737Z,9.00
2023-05-12T02:28:39.959Z,6.90
2023-05-12T02:31:07.394Z,7.27
2023-05-12T02:33:36.091Z,7.17
2023-05-12T02:36:03.589Z,4.80
2023-05-12T02:38:31.105Z,3.87
2023-05-12T02:40:58.300Z,3.60
2023-05-12T02:43:26.206Z,3.90
2023-05-12T02:45:55.737Z,3.80
2023-05-12T02:48:24.675Z,4.00
2023-05-12T02:50:53.298Z,3.13
2023-05-12T02:53:20.631Z,3.30
2023-05-12T02:55:48.265Z,3.37
2023-05-12T02:58:15.660Z,3.33
2023-05-12T03:00:42.864Z,2.80
2023-05-12T03:03:10.193Z,3.27
2023-05-12T03:05:37.874Z,3.47
2023-05-12T03:08:05.782Z,3.70
2023-05-12T03:10:33.669Z,3.67
2023-05-12T03:13:01.845Z,4.27
2023-05-12T03:15:29.385Z,3.83
2023-05-12T03:17:56.740Z,4.40
2023-05-12T03:20:24.635Z,4.40
2023-05-12T03:22:52.096Z,4.87
2023-05-12T03:25:19.704Z,4.83
2023-05-12T03:27:47.561Z,4.80
2023-05-12T03:30:15.259Z,4.90
2023-05-12T03:32:46.878Z,5.40
2023-05-12T03:35:14.378Z,5.00
2023-05-12T03:37:41.531Z,5.17
2023-05-12T03:40:09.670Z,5.73
2023-05-12T03:42:38.447Z,6.00
2023-05-12T03:45:08.951Z,6.87
2023-05-12T03:47:40.472Z,5.87
2023-05-12T03:50:08.881Z,6.13
2023-05-12T03:52:39.167Z,5.83
2023-05-12T03:55:07.119Z,5.90
2023-05-12T03:57:37.850Z,5.90
2023-05-12T04:00:06.644Z,7.07
2023-05-12T04:02:47.242Z,7.30
2023-05-12T04:05:15.656Z,6.60
2023-05-12T04:07:43.535Z,6.20
2023-05-12T04:10:11.630Z,6.93
2023-05-12T04:12:39.173Z,7.13
2023-05-12T04:15:08.080Z,6.53
2023-05-12T04:17:35.782Z,7.13
2023-05-12T04:20:04.121Z,8.47
2023-05-12T04:22:32.018Z,6.73
2023-05-12T04:24:59.404Z,6.13
2023-05-12T04:27:27.017Z,6.60
2023-05-12T04:29:54.808Z,7.17
2023-05-12T04:32:22.462Z,8.17
2023-05-12T04:34:50.414Z,8.27
2023-05-12T04:37:18.269Z,8.33
2023-05-12T04:39:45.746Z,8.10
2023-05-12T04:42:13.240Z,7.53
2023-05-12T04:44:40.853Z,8.87
2023-05-12T04:47:09.091Z,8.70
2023-05-12T04:49:36.553Z,9.27
2023-05-12T04:52:05.791Z,10.43
2023-05-12T04:54:33.268Z,8.33
2023-05-12T04:57:00.814Z,9.37
2023-05-12T04:59:28.233Z,9.30
2023-05-12T05:01:56.476Z,9.13
2023-05-12T05:04:24.161Z,9.47
2023-05-12T05:06:52.363Z,8.73
2023-05-12T05:09:20.184Z,10.00
2023-05-12T05:11:48.471Z,8.63
2023-05-12T05:14:15.982Z,8.70
2023-05-12T05:16:43.981Z,9.57
2023-05-12T05:19:19.941Z,9.37
2023-05-12T05:21:51.513Z,9.03
2023-05-12T05:24:20.122Z,8.53
2023-05-12T05:26:48.909Z,8.83
2023-05-12T05:29:16.488Z,9.83
2023-05-12T05:31:44.350Z,9.37
2023-05-12T05:34:13.153Z,8.93
2023-05-12T05:36:40.511Z,9.77
2023-05-12T05:39:10.287Z,8.77
2023-05-12T05:41:37.685Z,9.67
2023-05-12T05:44:06.813Z,9.80
2023-05-12T05:46:34.199Z,8.90
2023-05-12T05:49:01.624Z,8.97
2023-05-12T05:51:29.456Z,9.00
2023-05-12T05:53:56.663Z,9.33
2023-05-12T05:56:24.088Z,8.97
2023-05-12T05:58:52.675Z,10.40
2023-05-12T06:01:20.352Z,8.60
2023-05-12T06:03:48.440Z,9.50
2023-05-12T06:06:16.808Z,9.30
2023-05-12T06:08:44.562Z,8.77
2023-05-12T06:11:12.423Z,8.43
2023-05-12T06:13:39.918Z,9.87
2023-05-12T06:16:07.726Z,9.77
2023-05-12T06:18:38.072Z,9.53
2023-05-12T06:21:06.463Z,9.77
2023-05-12T06:23:34.017Z,9.70
2023-05-12T06:26:01.751Z,10.90
2023-05-12T06:28:29.239Z,9.20
2023-05-12T06:30:56.619Z,9.50
2023-05-12T06:33:23.813Z,8.57
2023-05-12T06:35:51.355Z,9.63
2023-05-12T06:38:19.118Z,9.53
2023-05-12T06:40:46.818Z,8.70
2023-05-12T06:43:14.849Z,9.37
2023-05-12T06:45:45.256Z,9.40
2023-05-12T06:48:12.737Z,9.03
2023-05-12T06:50:40.329Z,9.70
2023-05-12T06:53:08.460Z,8.73
2023-05-12T06:55:35.815Z,9.00
2023-05-12T06:58:03.629Z,8.50
2023-05-12T07:00:31.056Z,8.90
2023-05-12T07:02:58.485Z,8.47
2023-05-12T07:05:26.172Z,8.30
2023-05-12T07:07:53.554Z,9.10
2023-05-12T07:10:21.499Z,10.17
2023-05-12T07:12:49.518Z,8.07
2023-05-12T07:15:17.072Z,9.67
2023-05-12T07:17:44.579Z,9.73
2023-05-12T07:20:11.943Z,8.23
2023-05-12T07:22:39.422Z,8.87
2023-05-12T07:25:07.936Z,8.83
2023-05-12T07:27:35.260Z,8.40
2023-05-12T07:30:02.484Z,8.40
2023-05-12T07:32:29.682Z,8.90
2023-05-12T07:34:56.842Z,9.60
2023-05-12T07:37:24.005Z,8.13
2023-05-12T07:39:51.464Z,8.03
2023-05-12T07:42:18.931Z,7.80
2023-05-12T07:44:46.116Z,7.93
2023-05-12T07:47:14.341Z,7.27
2023-05-12T07:49:42.162Z,7.80
2023-05-12T07:52:09.514Z,8.00
2023-05-12T07:54:36.728Z,8.53
2023-05-12T07:57:04.379Z,8.73
2023-05-12T07:59:31.659Z,8.40
2023-05-12T08:01:58.911Z,9.20
2023-05-12T08:04:26.192Z,8.73
2023-05-12T08:06:53.385Z,8.43
2023-05-12T08:09:21.580Z,8.30
2023-05-12T08:11:51.587Z,8.53
2023-05-12T08:14:22.293Z,8.40
2023-05-12T08:16:49.436Z,8.67
2023-05-12T08:19:16.642Z,8.53
2023-05-12T08:21:43.789Z,8.10
2023-05-12T08:24:10.946Z,7.90
2023-05-12T08:26:38.294Z,8.10
2023-05-12T08:29:06.522Z,7.67
2023-05-12T08:31:33.820Z,7.20
2023-05-12T08:34:09.861Z,8.10
2023-05-12T08:36:38.797Z,7.30
2023-05-12T08:39:06.331Z,7.77
2023-05-12T08:41:44.675Z,8.50
2023-05-12T08:44:12.354Z,8.47
2023-05-12T08:46:40.197Z,6.77
2023-05-12T08:49:12.007Z,8.00
2023-05-12T08:51:41.910Z,7.30
2023-05-12T08:54:10.461Z,7.60
2023-05-12T08:59:09.684Z,7.93
2023-05-12T09:01:37.092Z,8.50
2023-05-12T09:04:07.776Z,7.40
2023-05-12T09:06:35.493Z,7.30
2023-05-12T09:09:03.472Z,6.80
2023-05-12T09:11:30.588Z,7.53
2023-05-12T09:14:02.761Z,6.80
2023-05-12T09:16:32.321Z,8.23
2023-05-12T09:19:01.102Z,6.77
2023-05-12T09:21:30.091Z,6.67
2023-05-12T09:24:00.407Z,7.60
2023-05-12T09:26:29.279Z,7.60
2023-05-12T09:29:08.883Z,6.60
2023-05-12T09:31:36.364Z,8.40
2023-05-12T09:34:08.193Z,7.10
2023-05-12T09:36:35.794Z,8.77
2023-05-12T09:39:07.153Z,8.87
2023-05-12T09:41:37.909Z,7.50
2023-05-12T09:44:05.642Z,7.20
2023-05-12T09:46:32.926Z,6.87
2023-05-12T09:49:02.592Z,7.50
2023-05-12T09:51:33.716Z,7.73
2023-05-12T09:54:01.182Z,49.00
2023-05-12T09:56:33.670Z,10.10
2023-05-12T09:59:04.174Z,7.80
2023-05-12T10:01:31.748Z,8.10
2023-05-12T10:03:59.646Z,6.60
2023-05-12T10:06:28.296Z,7.03
2023-05-12T10:09:14.528Z,6.70
2023-05-12T10:11:41.851Z,7.20
2023-05-12T10:14:09.924Z,9.80
2023-05-12T10:16:37.538Z,6.40
2023-05-12T10:19:04.994Z,6.90
2023-05-12T10:21:32.466Z,7.53
2023-05-12T10:24:00.069Z,6.47
2023-05-12T10:26:27.554Z,6.10
2023-05-12T10:28:54.878Z,5.83
2023-05-12T10:31:22.324Z,6.30
2023-05-12T10:33:56.663Z,6.23
2023-05-12T10:36:24.510Z,5.63
2023-05-12T10:38:51.753Z,6.17
2023-05-12T10:41:29.518Z,7.13
2023-05-12T10:43:56.688Z,9.47
2023-05-12T10:46:26.426Z,5.93
2023-05-12T10:48:59.157Z,6.30
2023-05-12T10:51:28.459Z,7.20
2023-05-12T10:54:03.713Z,7.20
2023-05-12T10:56:41.494Z,6.00
2023-05-12T10:59:17.224Z,7.10
2023-05-12T11:02:03.095Z,7.10
2023-05-12T11:04:40.554Z,8.30
2023-05-12T11:07:09.679Z,7.30
2023-05-12T11:09:43.420Z,6.97
2023-05-12T11:12:20.738Z,7.10
2023-05-12T11:14:48.319Z,7.57
2023-05-12T11:17:15.950Z,8.57
2023-05-12T11:19:50.516Z,9.43
2023-05-12T11:22:21.656Z,7.40
2023-05-12T11:24:49.664Z,9.20
2023-05-12T11:27:17.814Z,8.70
2023-05-12T11:29:47.099Z,9.27
2023-05-12T11:32:16.155Z,10.23
2023-05-12T11:34:43.703Z,8.77
2023-05-12T11:37:10.964Z,8.67
2023-05-12T11:39:38.148Z,7.93
2023-05-12T11:42:12.947Z,5.37
2023-05-12T11:44:47.731Z,5.33
2023-05-12T11:47:15.561Z,4.60
2023-05-12T11:49:48.917Z,5.10
2023-05-12T11:52:16.606Z,5.40
2023-05-12T11:54:51.517Z,4.70
2023-05-12T11:57:35.983Z,4.07
2023-05-12T12:00:04.615Z,4.93
2023-05-12T12:02:36.669Z,4.33
2023-05-12T12:05:04.976Z,5.80
2023-05-12T12:07:33.812Z,4.47
2023-05-12T12:10:15.439Z,5.20
2023-05-12T12:12:43.329Z,4.30
2023-05-12T12:15:12.428Z,5.40
2023-05-12T12:17:40.352Z,5.60
2023-05-12T12:20:09.768Z,5.30
2023-05-12T12:22:36.929Z,6.60
2023-05-12T12:25:04.571Z,6.20
2023-05-12T12:27:31.820Z,5.60
2023-05-12T12:29:59.819Z,5.73
2023-05-12T12:32:27.067Z,5.90
2023-05-12T12:34:54.313Z,5.93
2023-05-12T12:37:21.475Z,5.50
2023-05-12T12:39:48.681Z,9.73
2023-05-12T12:42:15.889Z,5.80
2023-05-12T12:44:43.870Z,5.83
2023-05-12T12:47:11.707Z,6.50
2023-05-12T12:49:39.210Z,5.53
2023-05-12T12:52:06.680Z,5.50
2023-05-12T12:54:33.986Z,5.47
2023-05-12T12:57:01.157Z,4.67
2023-05-12T12:59:28.358Z,4.57
2023-05-12T13:01:55.528Z,4.93
2023-05-12T13:04:23.553Z,4.70
2023-05-12T13:06:50.786Z,5.40
2023-05-12T13:09:19.889Z,5.00
2023-05-12T13:11:47.605Z,4.53
2023-05-12T13:14:15.922Z,4.50
2023-05-12T13:16:43.323Z,4.90
2023-05-12T13:19:10.977Z,6.30
2023-05-12T13:21:38.703Z,8.80
2023-05-12T13:24:05.937Z,8.13
2023-05-12T13:26:33.160Z,7.70
2023-05-12T13:29:01.022Z,7.50
2023-05-12T13:31:28.238Z,14.87
2023-05-12T13:33:56.198Z,6.20
2023-05-12T13:36:23.520Z,7.00
2023-05-12T13:38:50.743Z,6.37
2023-05-12T13:41:17.907Z,6.20
2023-05-12T13:43:45.125Z,4.50
2023-05-12T13:46:12.333Z,4.63
2023-05-12T13:48:39.509Z,4.33
2023-05-12T13:51:06.703Z,4.63
2023-05-12T13:53:37.106Z,4.33
2023-05-12T13:56:15.812Z,4.63
2023-05-12T13:58:44.383Z,4.20
2023-05-12T14:01:11.841Z,4.43
2023-05-12T14:03:39.194Z,4.70
2023-05-12T14:06:06.554Z,3.93
2023-05-12T14:08:33.810Z,4.40
2023-05-12T14:11:01.166Z,4.17
2023-05-12T14:13:28.335Z,4.30
2023-05-12T14:16:00.484Z,4.53
2023-05-12T14:18:27.758Z,4.00
2023-05-12T14:20:55.831Z,5.57
2023-05-12T14:23:23.049Z,6.30
2023-05-12T14:25:50.351Z,4.90
2023-05-12T14:28:17.606Z,4.80
2023-05-12T14:30:45.207Z,4.67
2023-05-12T14:33:12.629Z,4.67
2023-05-12T14:35:39.820Z,4.73
2023-05-12T14:38:08.072Z,4.93
2023-05-12T14:40:35.458Z,4.87
2023-05-12T14:43:03.292Z,4.13
2023-05-12T14:45:31.552Z,6.83
2023-05-12T14:47:59.497Z,6.30
2023-05-12T14:50:28.492Z,4.40
2023-05-12T14:52:55.691Z,5.33
2023-05-12T14:55:24.442Z,4.73
2023-05-12T14:57:52.036Z,3.80
2023-05-12T15:00:21.099Z,4.30
2023-05-12T15:02:50.187Z,4.20
2023-05-12T15:05:24.202Z,3.20
2023-05-12T15:07:56.785Z,4.27
2023-05-12T15:10:24.720Z,3.50
2023-05-12T15:12:53.257Z,3.73
2023-05-12T15:15:20.647Z,3.30
2023-05-12T15:17:48.387Z,3.87
2023-05-12T15:20:15.773Z,4.33
2023-05-12T15:22:44.937Z,3.87
2023-05-12T15:25:12.571Z,4.20
2023-05-12T15:27:39.778Z,3.93
2023-05-12T15:30:07.410Z,4.00
2023-05-12T15:32:34.665Z,3.90
2023-05-12T15:35:01.985Z,3.60
2023-05-12T15:37:29.299Z,4.07
2023-05-12T15:39:57.984Z,4.60
2023-05-12T15:42:32.943Z,5.17
2023-05-12T15:45:00.754Z,5.20
2023-05-12T15:47:29.219Z,4.60
2023-05-12T15:49:57.450Z,4.13
2023-05-12T15:52:24.762Z,4.70
2023-05-12T15:54:51.935Z,3.67
2023-05-12T15:57:19.067Z,4.20
2023-05-12T15:59:46.297Z,4.10
2023-05-12T16:02:13.541Z,4.00
2023-05-12T16:04:40.920Z,3.50
2023-05-12T16:07:08.082Z,3.93
2023-05-12T16:09:35.755Z,3.90
2023-05-12T16:12:03.119Z,3.30
2023-05-12T16:14:30.400Z,4.00
2023-05-12T16:16:57.829Z,3.90
2023-05-12T16:19:25.948Z,6.77
2023-05-12T16:21:54.561Z,3.83
2023-05-12T16:24:21.820Z,4.10
2023-05-12T16:26:49.059Z,3.83
2023-05-12T16:29:16.625Z,3.60
2023-05-12T16:31:45.014Z,3.53
2023-05-12T16:34:12.765Z,3.87
2023-05-12T16:36:46.072Z,4.20
2023-05-12T16:39:13.380Z,3.70
2023-05-12T16:41:40.882Z,3.80
2023-05-12T16:44:08.432Z,3.90
2023-05-12T16:46:35.935Z,3.67
2023-05-12T16:49:03.434Z,5.13
2023-05-12T16:51:30.844Z,4.10
2023-05-12T16:53:59.104Z,3.67
2023-05-12T16:56:27.335Z,3.57
2023-05-12T16:58:54.504Z,3.70
2023-05-12T17:01:21.794Z,3.97
2023-05-12T17:03:50.137Z,4.27
2023-05-12T17:06:17.355Z,4.13
2023-05-12T17:08:47.477Z,4.07
2023-05-12T17:11:14.719Z,4.07
2023-05-12T17:13:41.996Z,4.10
2023-05-12T17:16:16.540Z,4.00
2023-05-12T17:21:15.120Z,4.47
2023-05-12T17:23:42.308Z,4.70
2023-05-12T17:26:09.462Z,5.63
2023-05-12T17:28:36.729Z,5.03
2023-05-12T17:31:04.485Z,4.70
2023-05-12T17:33:31.702Z,4.90
2023-05-12T17:36:11.510Z,4.63
2023-05-12T17:38:39.376Z,4.40
2023-05-12T17:41:06.556Z,4.30
2023-05-12T17:43:36.830Z,4.97
2023-05-12T17:46:05.038Z,4.13
2023-05-12T17:48:33.083Z,4.13
2023-05-12T17:51:00.829Z,4.30
2023-05-12T17:53:29.619Z,4.10
2023-05-12T17:55:57.158Z,4.27
2023-05-12T17:58:24.540Z,4.80
2023-05-12T18:00:51.872Z,4.50
2023-05-12T18:03:23.670Z,4.40
2023-05-12T18:05:51.957Z,5.33
2023-05-12T18:08:19.453Z,5.20
2023-05-12T18:10:46.750Z,4.90
2023-05-12T18:13:16.190Z,7.70
2023-05-12T18:15:45.088Z,5.60
2023-05-12T18:18:14.304Z,4.80
2023-05-12T18:20:42.079Z,4.57
2023-05-12T18:23:09.336Z,5.43
2023-05-12T18:25:36.514Z,4.80
2023-05-12T18:28:03.798Z,5.57
2023-05-12T18:30:31.121Z,7.53
2023-05-12T18:32:58.405Z,7.00
2023-05-12T18:35:27.077Z,7.10
2023-05-12T18:37:54.396Z,6.10
2023-05-12T18:40:21.814Z,6.40
2023-05-12T18:42:49.003Z,7.97
2023-05-12T18:45:18.322Z,7.30
2023-05-12T18:47:46.185Z,5.60
2023-05-12T18:50:14.030Z,5.30
2023-05-12T18:52:42.392Z,6.87
2023-05-12T18:55:10.800Z,6.60
2023-05-12T18:57:38.197Z,9.00
2023-05-12T19:00:05.801Z,10.40
2023-05-12T19:02:34.403Z,10.50
2023-05-12T19:05:02.116Z,21.80
2023-05-12T19:07:29.358Z,20.93
2023-05-12T19:09:56.588Z,18.60
2023-05-12T19:12:25.633Z,10.73
2023-05-12T19:14:52.995Z,13.00
2023-05-12T19:17:20.443Z,18.10
2023-05-12T19:19:50.443Z,9.97
2023-05-12T19:22:17.894Z,17.03
2023-05-12T19:24:45.273Z,18.63
2023-05-12T19:27:12.578Z,10.17
2023-05-12T19:29:39.786Z,17.90
2023-05-12T19:32:07.406Z,126.70
2023-05-12T19:34:35.167Z,81.03
2023-05-12T19:37:02.731Z,32.13
2023-05-12T19:39:29.947Z,24.43
2023-05-12T19:41:57.604Z,15.10
2023-05-12T19:44:24.881Z,27.40
2023-05-12T19:46:53.669Z,13.50
2023-05-12T19:49:20.906Z,15.40
2023-05-12T19:51:48.626Z,18.03
2023-05-12T19:56:58.196Z,9.30
2023-05-12T19:59:29.112Z,13.57
2023-05-12T20:01:56.433Z,11.10
2023-05-12T20:04:31.098Z,13.57
2023-05-12T20:06:58.398Z,9.67
2023-05-12T20:09:25.912Z,10.77
2023-05-12T20:11:53.566Z,11.07
2023-05-12T20:14:20.970Z,9.90
2023-05-12T20:16:48.325Z,10.63
2023-05-12T20:19:16.906Z,21.47
2023-05-12T20:21:44.242Z,12.23
2023-05-12T20:24:11.824Z,10.90
2023-05-12T20:26:41.063Z,11.80
2023-05-12T20:29:08.351Z,10.70
2023-05-12T20:31:35.654Z,10.33
2023-05-12T20:34:02.860Z,9.70
2023-05-12T20:36:30.370Z,8.70
2023-05-12T20:38:58.228Z,10.30
2023-05-12T20:41:25.419Z,9.80
2023-05-12T20:43:54.231Z,9.90
2023-05-12T20:46:21.554Z,9.30
2023-05-12T20:48:48.795Z,8.63
2023-05-12T20:51:16.180Z,9.37
2023-05-12T20:53:44.102Z,8.83
2023-05-12T20:56:12.936Z,9.57
2023-05-12T20:58:41.844Z,8.80
2023-05-12T21:01:09.065Z,9.30
2023-05-12T21:03:36.421Z,8.33
2023-05-12T21:06:05.450Z,9.70
2023-05-12T21:08:32.629Z,13.03
2023-05-12T21:11:01.053Z,10.67
2023-05-12T21:13:30.499Z,9.80
2023-05-12T21:15:57.670Z,10.77
2023-05-12T21:18:24.909Z,12.17
2023-05-12T21:20:58.776Z,12.50
2023-05-12T21:23:28.277Z,10.00
2023-05-12T21:25:55.596Z,10.17
2023-05-12T21:28:30.119Z,8.93
2023-05-12T21:30:57.356Z,10.20
2023-05-12T21:33:24.913Z,9.50
2023-05-12T21:35:52.443Z,10.00
2023-05-12T21:38:20.811Z,8.60
2023-05-12T21:40:56.200Z,8.90
2023-05-12T21:43:23.461Z,8.80
2023-05-12T21:45:50.690Z,10.03
2023-05-12T21:48:19.500Z,9.27
2023-05-12T21:50:56.973Z,9.83
2023-05-12T21:53:24.142Z,9.47
2023-05-12T21:55:51.353Z,9.67
2023-05-12T21:58:18.662Z,9.00
2023-05-12T22:00:46.824Z,10.87
2023-05-12T22:03:14.133Z,8.90
2023-05-12T22:05:41.327Z,9.30
2023-05-12T22:08:08.609Z,9.50
2023-05-12T22:10:35.844Z,10.83
2023-05-12T22:13:03.137Z,11.70
2023-05-12T22:15:30.323Z,10.27
2023-05-12T22:17:58.860Z,10.77
2023-05-12T22:20:26.185Z,12.73
2023-05-12T22:22:53.490Z,11.30
2023-05-12T22:25:20.667Z,10.23
2023-05-12T22:27:47.902Z,10.53
2023-05-12T22:30:15.460Z,10.90
2023-05-12T22:32:42.690Z,11.80
2023-05-12T22:35:10.065Z,11.60
2023-05-12T22:37:37.324Z,11.13
2023-05-12T22:40:04.763Z,9.80
2023-05-12T22:42:31.957Z,10.30
2023-05-12T22:45:00.734Z,11.50
2023-05-12T22:47:28.002Z,11.80
2023-05-12T22:49:55.312Z,12.57
2023-05-12T22:52:22.507Z,11.53
2023-05-12T22:54:53.527Z,10.83
2023-05-12T22:57:21.233Z,10.97
2023-05-12T22:59:48.391Z,9.60
2023-05-12T23:02:16.185Z,11.60
2023-05-12T23:04:43.921Z,10.63
2023-05-12T23:07:11.575Z,9.80
2023-05-12T23:09:39.178Z,9.97
2023-05-12T23:12:07.021Z,9.93
2023-05-12T23:14:34.827Z,9.83
2023-05-12T23:17:02.320Z,9.70
2023-05-12T23:19:30.267Z,8.60
2023-05-12T23:21:57.591Z,8.93
2023-05-12T23:24:24.839Z,8.30
2023-05-12T23:26:54.903Z,9.30
2023-05-12T23:29:22.163Z,8.37
2023-05-12T23:31:49.505Z,9.23
2023-05-12T23:34:17.392Z,8.50
2023-05-12T23:36:44.591Z,8.53
2023-05-12T23:39:12.486Z,8.13
2023-05-12T23:41:39.721Z,9.43
2023-05-12T23:44:07.360Z,8.67
2023-05-12T23:46:34.900Z,8.57
2023-05-12T23:49:02.423Z,9.30
2023-05-12T23:51:31.665Z,8.43
2023-05-12T23:53:59.225Z,8.97
2023-05-12T23:56:26.727Z,7.77
2023-05-12T23:58:53.995Z,7.93
